sensor_id;sensor_type;location;lat;lon;timestamp;P1;durP1;ratioP1;P2;durP2;ratioP2
58643;SDS011;44411;49.994;8.660;2023-08-01T00:01:40;10.68;;;5.00;;
58643;SDS011;44411;49.994;8.660;2023-08-01T00:04:05;11.47;;;4.50;;
58643;SDS011;44411;49.994;8.660;2023-08-01T00:06:30;10.53;;;4.73;;
58643;SDS011;44411;49.994;8.660;2023-08-01T00:08:55;13.23;;;5.30;;
58643;SDS011;44411;49.994;8.660;2023-08-01T00:11:21;11.60;;;6.53;;
58643;SDS011;44411;49.994;8.660;2023-08-01T00:13:46;10.97;;;6.00;;
58643;SDS011;44411;49.994;8.660;2023-08-01T00:16:11;11.98;;;5.57;;
58643;SDS011;44411;49.994;8.660;2023-08-01T00:18:36;10.25;;;4.97;;
58643;SDS011;44411;49.994;8.660;2023-08-01T00:21:02;10.13;;;5.03;;
58643;SDS011;44411;49.994;8.660;2023-08-01T00:23:27;14.90;;;6.35;;
58643;SDS011;44411;49.994;8.660;2023-08-01T00:25:53;11.00;;;5.03;;
58643;SDS011;44411;49.994;8.660;2023-08-01T00:28:18;11.13;;;5.10;;
58643;SDS011;44411;49.994;8.660;2023-08-01T00:30:43;12.77;;;6.55;;
58643;SDS011;44411;49.994;8.660;2023-08-01T00:33:09;10.98;;;4.72;;
58643;SDS011;44411;49.994;8.660;2023-08-01T00:35:34;10.20;;;4.03;;
58643;SDS011;44411;49.994;8.660;2023-08-01T00:37:59;15.50;;;5.20;;
58643;SDS011;44411;49.994;8.660;2023-08-01T00:40:29;11.63;;;5.20;;
58643;SDS011;44411;49.994;8.660;2023-08-01T00:42:54;10.45;;;5.13;;
58643;SDS011;44411;49.994;8.660;2023-08-01T00:45:21;10.38;;;5.20;;
58643;SDS011;44411;49.994;8.660;2023-08-01T00:47:49;11.00;;;4.90;;
58643;SDS011;44411;49.994;8.660;2023-08-01T00:50:14;14.77;;;6.33;;
58643;SDS011;44411;49.994;8.660;2023-08-01T00:52:39;11.20;;;4.93;;
58643;SDS011;44411;49.994;8.660;2023-08-01T00:55:05;12.27;;;5.43;;
58643;SDS011;44411;49.994;8.660;2023-08-01T00:57:30;10.23;;;5.47;;
58643;SDS011;44411;49.994;8.660;2023-08-01T00:59:56;9.85;;;5.13;;
58643;SDS011;44411;49.994;8.660;2023-08-01T01:02:21;12.85;;;5.88;;
58643;SDS011;44411;49.994;8.660;2023-08-01T01:04:46;12.10;;;5.87;;
58643;SDS011;44411;49.994;8.660;2023-08-01T01:07:13;12.25;;;5.78;;
58643;SDS011;44411;49.994;8.660;2023-08-01T01:09:38;11.63;;;5.53;;
58643;SDS011;44411;49.994;8.660;2023-08-01T01:12:03;10.50;;;5.40;;
58643;SDS011;44411;49.994;8.660;2023-08-01T01:14:29;13.80;;;6.78;;
58643;SDS011;44411;49.994;8.660;2023-08-01T01:16:55;12.43;;;5.97;;
58643;SDS011;44411;49.994;8.660;2023-08-01T01:19:20;11.57;;;5.88;;
58643;SDS011;44411;49.994;8.660;2023-08-01T01:21:45;12.23;;;5.53;;
58643;SDS011;44411;49.994;8.660;2023-08-01T01:24:11;15.82;;;6.13;;
58643;SDS011;44411;49.994;8.660;2023-08-01T01:26:38;15.43;;;6.68;;
58643;SDS011;44411;49.994;8.660;2023-08-01T01:29:05;14.35;;;6.57;;
58643;SDS011;44411;49.994;8.660;2023-08-01T01:31:31;13.10;;;7.28;;
58643;SDS011;44411;49.994;8.660;2023-08-01T01:33:57;14.88;;;7.50;;
58643;SDS011;44411;49.994;8.660;2023-08-01T01:36:22;13.25;;;6.68;;
58643;SDS011;44411;49.994;8.660;2023-08-01T01:38:47;14.90;;;5.63;;
58643;SDS011;44411;49.994;8.660;2023-08-01T01:41:13;14.83;;;7.70;;
58643;SDS011;44411;49.994;8.660;2023-08-01T01:43:38;14.20;;;6.35;;
58643;SDS011;44411;49.994;8.660;2023-08-01T01:46:04;12.25;;;5.63;;
58643;SDS011;44411;49.994;8.660;2023-08-01T01:48:29;16.25;;;7.03;;
58643;SDS011;44411;49.994;8.660;2023-08-01T01:50:54;18.63;;;6.63;;
58643;SDS011;44411;49.994;8.660;2023-08-01T01:53:19;19.43;;;6.80;;
58643;SDS011;44411;49.994;8.660;2023-08-01T01:55:44;14.83;;;6.07;;
58643;SDS011;44411;49.994;8.660;2023-08-01T01:58:10;11.83;;;6.23;;
58643;SDS011;44411;49.994;8.660;2023-08-01T02:00:35;12.97;;;5.90;;
58643;SDS011;44411;49.994;8.660;2023-08-01T02:03:00;15.27;;;5.63;;
58643;SDS011;44411;49.994;8.660;2023-08-01T02:05:27;11.80;;;6.15;;
58643;SDS011;44411;49.994;8.660;2023-08-01T02:07:52;13.63;;;6.80;;
58643;SDS011;44411;49.994;8.660;2023-08-01T02:10:18;13.23;;;5.40;;
58643;SDS011;44411;49.994;8.660;2023-08-01T02:12:43;12.50;;;5.50;;
58643;SDS011;44411;49.994;8.660;2023-08-01T02:15:08;10.80;;;5.65;;
58643;SDS011;44411;49.994;8.660;2023-08-01T02:17:33;12.18;;;5.93;;
58643;SDS011;44411;49.994;8.660;2023-08-01T02:19:59;10.80;;;5.63;;
58643;SDS011;44411;49.994;8.660;2023-08-01T02:22:24;8.50;;;4.93;;
58643;SDS011;44411;49.994;8.660;2023-08-01T02:24:50;13.57;;;5.72;;
58643;SDS011;44411;49.994;8.660;2023-08-01T02:27:15;10.70;;;4.90;;
58643;SDS011;44411;49.994;8.660;2023-08-01T02:29:40;10.07;;;5.28;;
58643;SDS011;44411;49.994;8.660;2023-08-01T02:32:05;11.38;;;5.57;;
58643;SDS011;44411;49.994;8.660;2023-08-01T02:34:31;11.05;;;5.40;;
58643;SDS011;44411;49.994;8.660;2023-08-01T02:36:56;13.73;;;5.97;;
58643;SDS011;44411;49.994;8.660;2023-08-01T02:39:21;11.63;;;5.77;;
58643;SDS011;44411;49.994;8.660;2023-08-01T02:41:46;12.93;;;5.93;;
58643;SDS011;44411;49.994;8.660;2023-08-01T02:44:12;15.68;;;5.60;;
58643;SDS011;44411;49.994;8.660;2023-08-01T02:46:38;12.38;;;5.60;;
58643;SDS011;44411;49.994;8.660;2023-08-01T02:49:03;10.23;;;5.17;;
58643;SDS011;44411;49.994;8.660;2023-08-01T02:51:28;11.40;;;5.40;;
58643;SDS011;44411;49.994;8.660;2023-08-01T02:53:53;10.87;;;5.50;;
58643;SDS011;44411;49.994;8.660;2023-08-01T02:56:18;12.83;;;4.67;;
58643;SDS011;44411;49.994;8.660;2023-08-01T02:58:44;11.13;;;5.80;;
58643;SDS011;44411;49.994;8.660;2023-08-01T03:01:09;15.60;;;6.00;;
58643;SDS011;44411;49.994;8.660;2023-08-01T03:03:35;10.43;;;4.90;;
58643;SDS011;44411;49.994;8.660;2023-08-01T03:06:01;9.68;;;4.70;;
58643;SDS011;44411;49.994;8.660;2023-08-01T03:08:26;12.82;;;5.70;;
58643;SDS011;44411;49.994;8.660;2023-08-01T03:10:51;13.53;;;5.53;;
58643;SDS011;44411;49.994;8.660;2023-08-01T03:13:17;16.53;;;5.97;;
58643;SDS011;44411;49.994;8.660;2023-08-01T03:15:42;8.40;;;5.07;;
58643;SDS011;44411;49.994;8.660;2023-08-01T03:18:08;11.90;;;5.57;;
58643;SDS011;44411;49.994;8.660;2023-08-01T03:20:33;10.50;;;5.57;;
58643;SDS011;44411;49.994;8.660;2023-08-01T03:22:59;13.03;;;5.00;;
58643;SDS011;44411;49.994;8.660;2023-08-01T03:25:24;10.18;;;4.70;;
58643;SDS011;44411;49.994;8.660;2023-08-01T03:27:49;10.90;;;4.93;;
58643;SDS011;44411;49.994;8.660;2023-08-01T03:30:14;11.70;;;5.10;;
58643;SDS011;44411;49.994;8.660;2023-08-01T03:32:39;8.80;;;4.82;;
58643;SDS011;44411;49.994;8.660;2023-08-01T03:35:05;8.20;;;4.45;;
58643;SDS011;44411;49.994;8.660;2023-08-01T03:37:30;10.40;;;4.82;;
58643;SDS011;44411;49.994;8.660;2023-08-01T03:39:56;9.90;;;4.53;;
58643;SDS011;44411;49.994;8.660;2023-08-01T03:42:21;12.13;;;7.10;;
58643;SDS011;44411;49.994;8.660;2023-08-01T03:44:46;14.23;;;5.50;;
58643;SDS011;44411;49.994;8.660;2023-08-01T03:47:11;8.87;;;4.37;;
58643;SDS011;44411;49.994;8.660;2023-08-01T03:49:36;8.77;;;4.20;;
58643;SDS011;44411;49.994;8.660;2023-08-01T03:52:03;9.90;;;4.75;;
58643;SDS011;44411;49.994;8.660;2023-08-01T03:54:29;11.95;;;5.40;;
58643;SDS011;44411;49.994;8.660;2023-08-01T03:56:54;12.53;;;4.80;;
58643;SDS011;44411;49.994;8.660;2023-08-01T03:59:19;8.57;;;5.27;;
58643;SDS011;44411;49.994;8.660;2023-08-01T04:01:44;16.00;;;5.70;;
58643;SDS011;44411;49.994;8.660;2023-08-01T04:04:10;12.73;;;5.37;;
58643;SDS011;44411;49.994;8.660;2023-08-01T04:06:35;8.77;;;5.50;;
58643;SDS011;44411;49.994;8.660;2023-08-01T04:09:00;9.97;;;5.03;;
58643;SDS011;44411;49.994;8.660;2023-08-01T04:11:26;10.38;;;5.18;;
58643;SDS011;44411;49.994;8.660;2023-08-01T04:13:51;10.98;;;5.65;;
58643;SDS011;44411;49.994;8.660;2023-08-01T04:16:17;8.45;;;5.07;;
58643;SDS011;44411;49.994;8.660;2023-08-01T04:18:42;13.27;;;4.97;;
58643;SDS011;44411;49.994;8.660;2023-08-01T04:21:07;10.07;;;5.27;;
58643;SDS011;44411;49.994;8.660;2023-08-01T04:23:33;15.00;;;5.60;;
58643;SDS011;44411;49.994;8.660;2023-08-01T04:25:58;11.20;;;4.87;;
58643;SDS011;44411;49.994;8.660;2023-08-01T04:28:24;12.18;;;5.00;;
58643;SDS011;44411;49.994;8.660;2023-08-01T04:30:50;8.30;;;5.40;;
58643;SDS011;44411;49.994;8.660;2023-08-01T04:33:15;11.50;;;5.60;;
58643;SDS011;44411;49.994;8.660;2023-08-01T04:35:40;9.10;;;4.93;;
58643;SDS011;44411;49.994;8.660;2023-08-01T04:38:05;12.43;;;5.33;;
58643;SDS011;44411;49.994;8.660;2023-08-01T04:40:30;13.40;;;5.72;;
58643;SDS011;44411;49.994;8.660;2023-08-01T04:42:56;14.23;;;5.47;;
58643;SDS011;44411;49.994;8.660;2023-08-01T04:45:21;10.00;;;4.87;;
58643;SDS011;44411;49.994;8.660;2023-08-01T04:47:46;11.32;;;6.07;;
58643;SDS011;44411;49.994;8.660;2023-08-01T04:50:11;11.63;;;5.53;;
58643;SDS011;44411;49.994;8.660;2023-08-01T04:52:37;11.10;;;5.10;;
58643;SDS011;44411;49.994;8.660;2023-08-01T04:55:02;12.80;;;5.23;;
58643;SDS011;44411;49.994;8.660;2023-08-01T04:57:28;10.88;;;4.85;;
58643;SDS011;44411;49.994;8.660;2023-08-01T04:59:53;10.37;;;5.17;;
58643;SDS011;44411;49.994;8.660;2023-08-01T05:02:18;8.70;;;4.80;;
58643;SDS011;44411;49.994;8.660;2023-08-01T05:04:43;10.23;;;4.90;;
58643;SDS011;44411;49.994;8.660;2023-08-01T05:07:09;8.60;;;4.67;;
58643;SDS011;44411;49.994;8.660;2023-08-01T05:09:34;11.98;;;4.80;;
58643;SDS011;44411;49.994;8.660;2023-08-01T05:11:59;8.63;;;5.13;;
58643;SDS011;44411;49.994;8.660;2023-08-01T05:14:24;9.40;;;4.40;;
58643;SDS011;44411;49.994;8.660;2023-08-01T05:16:50;13.02;;;5.20;;
58643;SDS011;44411;49.994;8.660;2023-08-01T05:19:15;12.67;;;4.30;;
58643;SDS011;44411;49.994;8.660;2023-08-01T05:21:40;8.07;;;4.53;;
58643;SDS011;44411;49.994;8.660;2023-08-01T05:24:06;8.52;;;3.90;;
58643;SDS011;44411;49.994;8.660;2023-08-01T05:26:31;9.23;;;3.92;;
58643;SDS011;44411;49.994;8.660;2023-08-01T05:28:56;7.93;;;4.57;;
58643;SDS011;44411;49.994;8.660;2023-08-01T05:31:21;9.10;;;4.50;;
58643;SDS011;44411;49.994;8.660;2023-08-01T05:33:47;8.10;;;4.10;;
58643;SDS011;44411;49.994;8.660;2023-08-01T05:36:12;10.02;;;4.25;;
58643;SDS011;44411;49.994;8.660;2023-08-01T05:38:37;8.73;;;4.25;;
58643;SDS011;44411;49.994;8.660;2023-08-01T05:41:02;10.30;;;4.53;;
58643;SDS011;44411;49.994;8.660;2023-08-01T05:43:28;9.85;;;4.68;;
58643;SDS011;44411;49.994;8.660;2023-08-01T05:45:53;9.40;;;4.20;;
58643;SDS011;44411;49.994;8.660;2023-08-01T05:48:18;10.50;;;4.50;;
58643;SDS011;44411;49.994;8.660;2023-08-01T05:50:43;9.40;;;4.37;;
58643;SDS011;44411;49.994;8.660;2023-08-01T05:53:08;11.40;;;5.43;;
58643;SDS011;44411;49.994;8.660;2023-08-01T05:55:34;10.20;;;4.43;;
58643;SDS011;44411;49.994;8.660;2023-08-01T05:57:59;9.10;;;4.85;;
58643;SDS011;44411;49.994;8.660;2023-08-01T06:00:24;9.93;;;4.83;;
58643;SDS011;44411;49.994;8.660;2023-08-01T06:02:49;9.10;;;4.70;;
58643;SDS011;44411;49.994;8.660;2023-08-01T06:05:15;10.73;;;5.22;;
58643;SDS011;44411;49.994;8.660;2023-08-01T06:07:40;8.23;;;4.25;;
58643;SDS011;44411;49.994;8.660;2023-08-01T06:10:05;8.20;;;4.75;;
58643;SDS011;44411;49.994;8.660;2023-08-01T06:12:31;6.90;;;4.20;;
58643;SDS011;44411;49.994;8.660;2023-08-01T06:14:56;9.80;;;4.63;;
58643;SDS011;44411;49.994;8.660;2023-08-01T06:17:21;8.87;;;4.80;;
58643;SDS011;44411;49.994;8.660;2023-08-01T06:19:46;10.37;;;5.23;;
58643;SDS011;44411;49.994;8.660;2023-08-01T06:22:12;9.10;;;4.20;;
58643;SDS011;44411;49.994;8.660;2023-08-01T06:24:37;8.13;;;4.70;;
58643;SDS011;44411;49.994;8.660;2023-08-01T06:27:03;8.27;;;4.40;;
58643;SDS011;44411;49.994;8.660;2023-08-01T06:29:28;9.90;;;5.63;;
58643;SDS011;44411;49.994;8.660;2023-08-01T06:31:53;9.67;;;4.23;;
58643;SDS011;44411;49.994;8.660;2023-08-01T06:34:18;11.17;;;5.50;;
58643;SDS011;44411;49.994;8.660;2023-08-01T06:36:43;9.50;;;4.80;;
58643;SDS011;44411;49.994;8.660;2023-08-01T06:39:09;8.30;;;4.73;;
58643;SDS011;44411;49.994;8.660;2023-08-01T06:41:34;10.43;;;5.10;;
58643;SDS011;44411;49.994;8.660;2023-08-01T06:43:59;8.80;;;4.37;;
58643;SDS011;44411;49.994;8.660;2023-08-01T06:46:24;10.37;;;4.23;;
58643;SDS011;44411;49.994;8.660;2023-08-01T06:48:49;7.83;;;4.47;;
58643;SDS011;44411;49.994;8.660;2023-08-01T06:51:15;7.63;;;4.13;;
58643;SDS011;44411;49.994;8.660;2023-08-01T06:53:40;10.00;;;4.80;;
58643;SDS011;44411;49.994;8.660;2023-08-01T06:56:05;8.27;;;4.03;;
58643;SDS011;44411;49.994;8.660;2023-08-01T06:58:30;9.03;;;4.77;;
58643;SDS011;44411;49.994;8.660;2023-08-01T07:00:55;9.07;;;4.73;;
58643;SDS011;44411;49.994;8.660;2023-08-01T07:03:21;7.27;;;3.73;;
58643;SDS011;44411;49.994;8.660;2023-08-01T07:05:46;9.53;;;4.57;;
58643;SDS011;44411;49.994;8.660;2023-08-01T07:08:11;7.63;;;4.13;;
58643;SDS011;44411;49.994;8.660;2023-08-01T07:10:36;6.70;;;3.80;;
58643;SDS011;44411;49.994;8.660;2023-08-01T07:13:02;8.65;;;3.47;;
58643;SDS011;44411;49.994;8.660;2023-08-01T07:15:29;7.78;;;3.33;;
58643;SDS011;44411;49.994;8.660;2023-08-01T07:17:55;7.68;;;3.30;;
58643;SDS011;44411;49.994;8.660;2023-08-01T07:20:20;8.23;;;3.25;;
58643;SDS011;44411;49.994;8.660;2023-08-01T07:22:45;7.18;;;3.40;;
58643;SDS011;44411;49.994;8.660;2023-08-01T07:25:10;4.67;;;2.40;;
58643;SDS011;44411;49.994;8.660;2023-08-01T07:27:36;4.15;;;1.10;;
58643;SDS011;44411;49.994;8.660;2023-08-01T07:30:02;2.70;;;1.17;;
58643;SDS011;44411;49.994;8.660;2023-08-01T07:32:28;2.88;;;1.13;;
58643;SDS011;44411;49.994;8.660;2023-08-01T07:34:53;3.20;;;1.37;;
58643;SDS011;44411;49.994;8.660;2023-08-01T07:37:18;3.47;;;1.33;;
58643;SDS011;44411;49.994;8.660;2023-08-01T07:39:43;3.43;;;1.30;;
58643;SDS011;44411;49.994;8.660;2023-08-01T07:42:08;3.60;;;1.30;;
58643;SDS011;44411;49.994;8.660;2023-08-01T07:44:34;2.63;;;1.20;;
58643;SDS011;44411;49.994;8.660;2023-08-01T07:46:59;3.27;;;1.13;;
58643;SDS011;44411;49.994;8.660;2023-08-01T07:49:24;4.30;;;1.60;;
58643;SDS011;44411;49.994;8.660;2023-08-01T07:51:49;4.10;;;1.70;;
58643;SDS011;44411;49.994;8.660;2023-08-01T07:54:16;3.13;;;1.50;;
58643;SDS011;44411;49.994;8.660;2023-08-01T07:56:41;3.27;;;1.30;;
58643;SDS011;44411;49.994;8.660;2023-08-01T07:59:08;2.80;;;1.30;;
58643;SDS011;44411;49.994;8.660;2023-08-01T08:01:33;3.60;;;1.30;;
58643;SDS011;44411;49.994;8.660;2023-08-01T08:03:59;4.93;;;1.70;;
58643;SDS011;44411;49.994;8.660;2023-08-01T08:06:24;2.77;;;1.20;;
58643;SDS011;44411;49.994;8.660;2023-08-01T08:08:49;3.63;;;1.30;;
58643;SDS011;44411;49.994;8.660;2023-08-01T08:11:15;2.60;;;1.20;;
58643;SDS011;44411;49.994;8.660;2023-08-01T08:13:41;2.95;;;1.13;;
58643;SDS011;44411;49.994;8.660;2023-08-01T08:19:08;3.15;;;1.08;;
58643;SDS011;44411;49.994;8.660;2023-08-01T08:21:33;3.05;;;1.40;;
58643;SDS011;44411;49.994;8.660;2023-08-01T08:23:58;2.47;;;1.00;;
58643;SDS011;44411;49.994;8.660;2023-08-01T08:26:24;1.88;;;0.77;;
58643;SDS011;44411;49.994;8.660;2023-08-01T08:28:50;2.33;;;0.90;;
58643;SDS011;44411;49.994;8.660;2023-08-01T08:31:15;3.10;;;0.97;;
58643;SDS011;44411;49.994;8.660;2023-08-01T08:33:40;2.93;;;0.77;;
58643;SDS011;44411;49.994;8.660;2023-08-01T08:36:05;1.27;;;0.70;;
58643;SDS011;44411;49.994;8.660;2023-08-01T08:38:30;0.97;;;0.50;;
58643;SDS011;44411;49.994;8.660;2023-08-01T08:43:22;1.98;;;0.98;;
58643;SDS011;44411;49.994;8.660;2023-08-01T08:45:48;1.73;;;0.60;;
58643;SDS011;44411;49.994;8.660;2023-08-01T08:48:15;3.28;;;0.73;;
58643;SDS011;44411;49.994;8.660;2023-08-01T08:50:42;2.80;;;0.90;;
58643;SDS011;44411;49.994;8.660;2023-08-01T08:53:07;1.63;;;0.77;;
58643;SDS011;44411;49.994;8.660;2023-08-01T08:55:37;1.50;;;0.98;;
58643;SDS011;44411;49.994;8.660;2023-08-01T08:58:03;1.30;;;0.70;;
58643;SDS011;44411;49.994;8.660;2023-08-01T09:00:28;1.27;;;0.70;;
58643;SDS011;44411;49.994;8.660;2023-08-01T09:02:53;2.47;;;1.13;;
58643;SDS011;44411;49.994;8.660;2023-08-01T09:05:19;1.92;;;0.82;;
58643;SDS011;44411;49.994;8.660;2023-08-01T09:07:45;2.38;;;0.80;;
58643;SDS011;44411;49.994;8.660;2023-08-01T09:10:11;1.92;;;0.90;;
58643;SDS011;44411;49.994;8.660;2023-08-01T09:12:37;1.60;;;1.00;;
58643;SDS011;44411;49.994;8.660;2023-08-01T09:15:02;3.38;;;0.90;;
58643;SDS011;44411;49.994;8.660;2023-08-01T09:17:28;2.88;;;1.00;;
58643;SDS011;44411;49.994;8.660;2023-08-01T09:20:05;2.20;;;0.80;;
58643;SDS011;44411;49.994;8.660;2023-08-01T09:22:40;2.40;;;1.00;;
58643;SDS011;44411;49.994;8.660;2023-08-01T09:25:06;2.20;;;0.88;;
58643;SDS011;44411;49.994;8.660;2023-08-01T09:27:32;1.65;;;0.70;;
58643;SDS011;44411;49.994;8.660;2023-08-01T09:30:04;2.33;;;1.38;;
58643;SDS011;44411;49.994;8.660;2023-08-01T09:32:29;2.78;;;1.20;;
58643;SDS011;44411;49.994;8.660;2023-08-01T09:34:58;1.73;;;0.73;;
58643;SDS011;44411;49.994;8.660;2023-08-01T09:37:23;1.73;;;0.80;;
58643;SDS011;44411;49.994;8.660;2023-08-01T09:39:54;2.10;;;0.83;;
58643;SDS011;44411;49.994;8.660;2023-08-01T09:42:20;1.80;;;1.00;;
58643;SDS011;44411;49.994;8.660;2023-08-01T09:44:46;2.23;;;1.10;;
58643;SDS011;44411;49.994;8.660;2023-08-01T09:47:12;3.83;;;0.95;;
58643;SDS011;44411;49.994;8.660;2023-08-01T09:49:46;4.80;;;1.20;;
58643;SDS011;44411;49.994;8.660;2023-08-01T09:52:12;1.63;;;0.82;;
58643;SDS011;44411;49.994;8.660;2023-08-01T09:54:37;2.30;;;1.10;;
58643;SDS011;44411;49.994;8.660;2023-08-01T09:57:02;2.37;;;1.10;;
58643;SDS011;44411;49.994;8.660;2023-08-01T09:59:29;1.60;;;0.70;;
58643;SDS011;44411;49.994;8.660;2023-08-01T10:01:55;1.35;;;0.68;;
58643;SDS011;44411;49.994;8.660;2023-08-01T10:04:40;2.38;;;0.80;;
58643;SDS011;44411;49.994;8.660;2023-08-01T10:07:08;2.58;;;1.00;;
58643;SDS011;44411;49.994;8.660;2023-08-01T10:09:33;1.90;;;1.00;;
58643;SDS011;44411;49.994;8.660;2023-08-01T10:12:00;2.45;;;1.05;;
58643;SDS011;44411;49.994;8.660;2023-08-01T10:14:26;3.17;;;1.20;;
58643;SDS011;44411;49.994;8.660;2023-08-01T10:16:51;2.70;;;1.00;;
58643;SDS011;44411;49.994;8.660;2023-08-01T10:19:17;1.37;;;0.73;;
58643;SDS011;44411;49.994;8.660;2023-08-01T10:21:42;1.92;;;1.00;;
58643;SDS011;44411;49.994;8.660;2023-08-01T10:24:08;2.25;;;1.00;;
58643;SDS011;44411;49.994;8.660;2023-08-01T10:26:34;2.97;;;1.08;;
58643;SDS011;44411;49.994;8.660;2023-08-01T10:29:00;2.50;;;1.10;;
58643;SDS011;44411;49.994;8.660;2023-08-01T10:31:27;2.03;;;1.00;;
58643;SDS011;44411;49.994;8.660;2023-08-01T10:33:52;2.20;;;0.97;;
58643;SDS011;44411;49.994;8.660;2023-08-01T10:36:28;2.47;;;0.80;;
58643;SDS011;44411;49.994;8.660;2023-08-01T10:38:55;1.30;;;0.80;;
58643;SDS011;44411;49.994;8.660;2023-08-01T10:43:48;3.45;;;1.23;;
58643;SDS011;44411;49.994;8.660;2023-08-01T10:46:13;4.17;;;1.07;;
58643;SDS011;44411;49.994;8.660;2023-08-01T10:48:48;1.52;;;0.70;;
58643;SDS011;44411;49.994;8.660;2023-08-01T10:51:14;3.35;;;1.08;;
58643;SDS011;44411;49.994;8.660;2023-08-01T10:53:39;3.07;;;1.23;;
58643;SDS011;44411;49.994;8.660;2023-08-01T10:56:04;1.60;;;0.80;;
58643;SDS011;44411;49.994;8.660;2023-08-01T10:58:30;3.00;;;0.97;;
58643;SDS011;44411;49.994;8.660;2023-08-01T11:00:58;2.27;;;1.00;;
58643;SDS011;44411;49.994;8.660;2023-08-01T11:03:33;2.10;;;0.88;;
58643;SDS011;44411;49.994;8.660;2023-08-01T11:05:58;2.33;;;1.10;;
58643;SDS011;44411;49.994;8.660;2023-08-01T11:08:33;2.23;;;0.90;;
58643;SDS011;44411;49.994;8.660;2023-08-01T11:10:58;2.85;;;1.05;;
58643;SDS011;44411;49.994;8.660;2023-08-01T11:13:23;3.17;;;1.00;;
58643;SDS011;44411;49.994;8.660;2023-08-01T11:15:49;2.47;;;0.90;;
58643;SDS011;44411;49.994;8.660;2023-08-01T11:18:14;2.33;;;1.00;;
58643;SDS011;44411;49.994;8.660;2023-08-01T11:20:39;3.27;;;1.27;;
58643;SDS011;44411;49.994;8.660;2023-08-01T11:23:06;3.65;;;1.15;;
58643;SDS011;44411;49.994;8.660;2023-08-01T11:25:41;3.17;;;1.10;;
58643;SDS011;44411;49.994;8.660;2023-08-01T11:28:08;3.47;;;1.23;;
58643;SDS011;44411;49.994;8.660;2023-08-01T11:30:34;3.33;;;1.08;;
58643;SDS011;44411;49.994;8.660;2023-08-01T11:32:59;3.25;;;1.00;;
58643;SDS011;44411;49.994;8.660;2023-08-01T11:35:25;4.55;;;1.02;;
58643;SDS011;44411;49.994;8.660;2023-08-01T11:37:50;3.20;;;1.25;;
58643;SDS011;44411;49.994;8.660;2023-08-01T11:40:16;3.60;;;1.33;;
58643;SDS011;44411;49.994;8.660;2023-08-01T11:42:41;2.45;;;1.00;;
58643;SDS011;44411;49.994;8.660;2023-08-01T11:45:11;3.08;;;1.02;;
58643;SDS011;44411;49.994;8.660;2023-08-01T11:47:36;1.77;;;1.00;;
58643;SDS011;44411;49.994;8.660;2023-08-01T11:50:01;2.03;;;0.98;;
58643;SDS011;44411;49.994;8.660;2023-08-01T11:52:27;4.30;;;1.40;;
58643;SDS011;44411;49.994;8.660;2023-08-01T11:54:53;2.47;;;1.23;;
58643;SDS011;44411;49.994;8.660;2023-08-01T11:57:20;3.53;;;1.17;;
58643;SDS011;44411;49.994;8.660;2023-08-01T11:59:46;2.55;;;1.00;;
58643;SDS011;44411;49.994;8.660;2023-08-01T12:02:11;2.47;;;1.02;;
58643;SDS011;44411;49.994;8.660;2023-08-01T12:04:38;3.03;;;1.00;;
58643;SDS011;44411;49.994;8.660;2023-08-01T12:07:12;2.47;;;1.20;;
58643;SDS011;44411;49.994;8.660;2023-08-01T12:09:37;3.20;;;1.13;;
58643;SDS011;44411;49.994;8.660;2023-08-01T12:12:02;2.00;;;0.98;;
58643;SDS011;44411;49.994;8.660;2023-08-01T12:14:29;3.88;;;1.08;;
58643;SDS011;44411;49.994;8.660;2023-08-01T12:16:54;3.20;;;1.52;;
58643;SDS011;44411;49.994;8.660;2023-08-01T12:19:20;2.10;;;0.93;;
58643;SDS011;44411;49.994;8.660;2023-08-01T12:21:46;3.50;;;1.00;;
58643;SDS011;44411;49.994;8.660;2023-08-01T12:24:11;2.88;;;1.10;;
58643;SDS011;44411;49.994;8.660;2023-08-01T12:26:36;2.63;;;1.00;;
58643;SDS011;44411;49.994;8.660;2023-08-01T12:29:01;2.50;;;0.90;;
58643;SDS011;44411;49.994;8.660;2023-08-01T12:31:27;2.03;;;0.90;;
58643;SDS011;44411;49.994;8.660;2023-08-01T12:33:52;2.33;;;1.03;;
58643;SDS011;44411;49.994;8.660;2023-08-01T12:36:20;3.70;;;1.40;;
58643;SDS011;44411;49.994;8.660;2023-08-01T12:38:46;2.10;;;0.77;;
58643;SDS011;44411;49.994;8.660;2023-08-01T12:41:11;2.97;;;0.82;;
58643;SDS011;44411;49.994;8.660;2023-08-01T12:43:36;2.83;;;0.83;;
58643;SDS011;44411;49.994;8.660;2023-08-01T12:46:01;3.08;;;1.10;;
58643;SDS011;44411;49.994;8.660;2023-08-01T12:48:27;2.77;;;1.10;;
58643;SDS011;44411;49.994;8.660;2023-08-01T12:50:53;2.17;;;1.00;;
58643;SDS011;44411;49.994;8.660;2023-08-01T12:53:18;2.42;;;0.90;;
58643;SDS011;44411;49.994;8.660;2023-08-01T12:55:44;2.85;;;1.00;;
58643;SDS011;44411;49.994;8.660;2023-08-01T12:58:10;2.58;;;1.15;;
58643;SDS011;44411;49.994;8.660;2023-08-01T13:00:35;1.40;;;0.80;;
58643;SDS011;44411;49.994;8.660;2023-08-01T13:03:00;3.07;;;0.90;;
58643;SDS011;44411;49.994;8.660;2023-08-01T13:05:25;2.60;;;1.40;;
58643;SDS011;44411;49.994;8.660;2023-08-01T13:07:51;3.47;;;1.25;;
58643;SDS011;44411;49.994;8.660;2023-08-01T13:10:16;4.00;;;1.40;;
58643;SDS011;44411;49.994;8.660;2023-08-01T13:12:41;4.27;;;1.60;;
58643;SDS011;44411;49.994;8.660;2023-08-01T13:15:07;4.97;;;2.00;;
58643;SDS011;44411;49.994;8.660;2023-08-01T13:17:32;4.55;;;1.40;;
58643;SDS011;44411;49.994;8.660;2023-08-01T13:19:57;4.50;;;1.57;;
58643;SDS011;44411;49.994;8.660;2023-08-01T13:22:22;3.20;;;1.03;;
58643;SDS011;44411;49.994;8.660;2023-08-01T13:24:47;4.90;;;1.13;;
58643;SDS011;44411;49.994;8.660;2023-08-01T13:27:13;2.57;;;1.00;;
58643;SDS011;44411;49.994;8.660;2023-08-01T13:29:38;3.33;;;1.13;;
58643;SDS011;44411;49.994;8.660;2023-08-01T13:32:05;3.30;;;1.33;;
58643;SDS011;44411;49.994;8.660;2023-08-01T13:34:30;2.20;;;0.80;;
58643;SDS011;44411;49.994;8.660;2023-08-01T13:36:55;3.20;;;1.30;;
58643;SDS011;44411;49.994;8.660;2023-08-01T13:39:21;2.17;;;1.17;;
58643;SDS011;44411;49.994;8.660;2023-08-01T13:41:47;2.78;;;1.05;;
58643;SDS011;44411;49.994;8.660;2023-08-01T13:44:12;5.57;;;1.30;;
58643;SDS011;44411;49.994;8.660;2023-08-01T13:46:37;2.47;;;0.97;;
58643;SDS011;44411;49.994;8.660;2023-08-01T13:49:02;2.27;;;0.83;;
58643;SDS011;44411;49.994;8.660;2023-08-01T13:51:27;2.83;;;1.23;;
58643;SDS011;44411;49.994;8.660;2023-08-01T13:53:52;2.90;;;1.27;;
58643;SDS011;44411;49.994;8.660;2023-08-01T13:56:18;3.47;;;1.40;;
58643;SDS011;44411;49.994;8.660;2023-08-01T13:58:43;2.67;;;1.00;;
58643;SDS011;44411;49.994;8.660;2023-08-01T14:01:09;1.83;;;0.73;;
58643;SDS011;44411;49.994;8.660;2023-08-01T14:03:37;4.47;;;1.08;;
58643;SDS011;44411;49.994;8.660;2023-08-01T14:06:06;3.50;;;1.00;;
58643;SDS011;44411;49.994;8.660;2023-08-01T14:08:31;2.47;;;1.08;;
58643;SDS011;44411;49.994;8.660;2023-08-01T14:10:57;3.25;;;1.40;;
58643;SDS011;44411;49.994;8.660;2023-08-01T14:13:22;3.77;;;1.20;;
58643;SDS011;44411;49.994;8.660;2023-08-01T14:15:47;3.00;;;1.57;;
58643;SDS011;44411;49.994;8.660;2023-08-01T14:18:12;3.37;;;1.47;;
58643;SDS011;44411;49.994;8.660;2023-08-01T14:20:37;5.23;;;1.50;;
58643;SDS011;44411;49.994;8.660;2023-08-01T14:23:03;3.90;;;1.10;;
58643;SDS011;44411;49.994;8.660;2023-08-01T14:25:28;4.70;;;1.45;;
58643;SDS011;44411;49.994;8.660;2023-08-01T14:27:53;2.97;;;1.27;;
58643;SDS011;44411;49.994;8.660;2023-08-01T14:30:18;5.37;;;1.63;;
58643;SDS011;44411;49.994;8.660;2023-08-01T14:32:44;3.43;;;1.90;;
58643;SDS011;44411;49.994;8.660;2023-08-01T14:35:09;2.37;;;0.87;;
58643;SDS011;44411;49.994;8.660;2023-08-01T14:37:36;2.30;;;1.17;;
58643;SDS011;44411;49.994;8.660;2023-08-01T14:40:01;2.92;;;1.27;;
58643;SDS011;44411;49.994;8.660;2023-08-01T14:42:28;2.92;;;1.17;;